Time;durP1;ratioP1;P1;durP2;ratioP2;P2;SDS_P1;SDS_P2;PMS_P1;PMS_P2;Temp;Humidity;BMP_temperature;BMP_pressure;BME280_temperature;BME280_humidity;BME280_pressure;Samples;Min_cycle;Max_cycle;Signal;HPM_P1;HPM_P2
2024/02/27 00:10:09;;;;;;;64.77;41.80;;;9.20;99.90;;;;;;4777893;29;20203;-83
2024/02/27 00:35:20;;;;;;;67.13;39.37;;;8.80;99.90;;;;;;4769926;29;20203;-84
2024/02/27 00:55:52;;;;;;;68.53;41.03;;;8.90;99.90;;;;;;4810582;29;20863;-86
2024/02/27 01:00:13;;;;;;;67.47;40.30;;;8.90;99.90;;;;;;4691205;29;20558;-85
2024/02/27 01:20:58;;;;;;;66.87;37.97;;;8.10;99.90;;;;;;4771470;29;20211;-85
2024/02/27 01:46:16;;;;;;;70.27;37.37;;;7.60;99.90;;;;;;4771949;29;20223;-83
2024/02/27 02:22:05;;;;;;;70.73;36.30;;;7.20;99.90;;;;;;4937360;28;20680;-85
2024/02/27 02:26:27;;;;;;;65.80;36.93;;;7.20;99.90;;;;;;4852550;29;20217;-86
2024/02/27 02:47:03;;;;;;;69.50;36.37;;;6.50;99.90;;;;;;4757179;29;21028;-83
2024/02/27 03:12:13;;;;;;;84.90;37.63;;;6.10;99.90;;;;;;4539386;30;20273;-85
2024/02/27 03:42:29;;;;;;;83.03;40.27;;;5.80;99.90;;;;;;4612289;30;20589;-84
2024/02/27 04:03:12;;;;;;;88.00;41.13;;;5.40;99.90;;;;;;4644991;30;20255;-86
2024/02/27 04:28:49;;;;;;;87.80;41.00;;;5.80;99.90;;;;;;4753775;29;20290;-84
2024/02/27 04:59:01;;;;;;;132.30;62.20;;;6.30;99.90;;;;;;4751208;29;20228;-84
2024/02/27 05:24:20;;;;;;;121.83;57.60;;;7.30;99.90;;;;;;4797111;29;20210;-86
2024/02/27 05:39:47;;;;;;;124.30;60.87;;;6.80;99.90;;;;;;4795538;29;20212;-84
2024/02/27 06:09:36;;;;;;;109.73;53.20;;;6.60;99.90;;;;;;4746034;29;20235;-85
2024/02/27 06:30:32;;;;;;;121.10;54.93;;;7.10;99.90;;;;;;4706402;29;20330;-83
2024/02/27 06:55:33;;;;;;;111.07;52.63;;;7.10;99.90;;;;;;4684588;29;20620;-84
2024/02/27 07:40:57;;;;;;;106.27;49.97;;;8.20;99.90;;;;;;4587782;29;21171;-85
2024/02/27 08:06:45;;;;;;;81.80;45.77;;;9.00;99.90;;;;;;4721241;29;20754;-84
2024/02/27 08:57:39;;;;;;;46.37;28.67;;;11.10;99.90;;;;;;4898400;28;20223;-82
2024/02/27 09:27:58;;;;;;;37.67;24.50;;;12.10;99.90;;;;;;4663268;29;20580;-83
2024/02/27 09:58:38;;;;;;;33.43;22.50;;;12.30;99.90;;;;;;4718270;29;20318;-86
2024/02/27 10:02:58;;;;;;;38.83;24.67;;;12.30;99.90;;;;;;4736923;29;20688;-86
2024/02/27 10:28:51;;;;;;;31.37;21.73;;;13.70;99.90;;;;;;4795528;29;20770;-85
2024/02/27 11:04:36;;;;;;;28.67;19.70;;;14.10;99.90;;;;;;4907087;28;21382;-83
2024/02/27 11:09:03;;;;;;;28.73;19.93;;;14.20;99.90;;;;;;4868449;28;20222;-83
2024/02/27 11:34:54;;;;;;;28.13;18.77;;;15.20;99.90;;;;;;4826652;28;20212;-79
2024/02/27 11:55:19;;;;;;;26.70;17.50;;;15.30;99.90;;;;;;4628885;30;20257;-82
2024/02/27 12:30:10;;;;;;;22.63;16.27;;;15.90;95.00;;;;;;4598264;29;20842;-82
2024/02/27 13:00:33;;;;;;;19.77;14.90;;;15.00;99.90;;;;;;4729611;29;20506;-80
2024/02/27 13:21:20;;;;;;;23.20;14.90;;;15.10;99.90;;;;;;4737572;29;20695;-82
2024/02/27 13:51:16;;;;;;;19.27;12.83;;;15.40;92.50;;;;;;4572971;30;20619;-79
2024/02/27 14:07:09;;;;;;;17.87;13.73;;;15.20;95.40;;;;;;4637522;30;20234;-85
2024/02/27 14:27:28;;;;;;;23.57;16.73;;;15.60;95.10;;;;;;4717031;29;20224;-81
2024/02/27 14:47:49;;;;;;;20.83;15.53;;;15.10;99.90;;;;;;4709944;29;20232;-84
2024/02/27 15:37:51;;;;;;;27.67;16.90;;;14.00;99.90;;;;;;4815283;29;20548;-86
2024/02/27 16:03:10;;;;;;;23.90;17.40;;;12.20;99.90;;;;;;4745867;29;20233;-85
2024/02/27 16:18:47;;;;;;;28.50;18.60;;;11.40;99.90;;;;;;4751020;29;21071;-85
2024/02/27 16:48:50;;;;;;;28.03;18.90;;;10.50;99.90;;;;;;4804636;29;20586;-85
2024/02/27 17:09:31;;;;;;;31.60;19.10;;;10.10;99.90;;;;;;4784693;29;20985;-85
2024/02/27 17:30:01;;;;;;;34.90;21.40;;;9.70;99.90;;;;;;4749518;29;20230;-85
2024/02/27 18:25:55;;;;;;;38.70;26.50;;;8.90;99.90;;;;;;4722173;29;20269;-88
2024/02/27 18:50:54;;;;;;;37.63;26.77;;;8.90;99.90;;;;;;4774337;29;20320;-84
2024/02/27 19:11:25;;;;;;;42.17;25.83;;;9.00;99.90;;;;;;4783663;29;20236;-88
2024/02/27 19:31:49;;;;;;;40.27;25.40;;;8.90;99.90;;;;;;4799217;29;20887;-85
2024/02/27 19:56:54;;;;;;;44.10;28.57;;;8.60;99.90;;;;;;4860958;29;20257;-86
2024/02/27 20:12:20;;;;;;;51.53;31.20;;;8.50;99.90;;;;;;4754103;29;20285;-86
2024/02/27 20:47:54;;;;;;;45.70;30.07;;;8.40;99.90;;;;;;4959222;28;20220;-85
2024/02/27 21:18:08;;;;;;;53.03;32.13;;;8.40;99.90;;;;;;4802975;29;20371;-86
2024/02/27 22:03:49;;;;;;;54.83;36.60;;;8.40;99.90;;;;;;4854662;29;20909;-84
2024/02/27 22:34:13;;;;;;;53.43;36.17;;;8.60;99.90;;;;;;4899608;28;20729;-83
2024/02/27 22:59:36;;;;;;;64.07;41.10;;;8.40;99.90;;;;;;4818706;29;20206;-84
2024/02/27 23:24:33;;;;;;;64.67;41.50;;;8.40;99.90;;;;;;4813388;28;20385;-85
2024/02/27 23:45:11;;;;;;;71.67;46.13;;;8.60;99.90;;;;;;4875479;28;20752;-83
